Time;durP1;ratioP1;P1;durP2;ratioP2;P2;SDS_P1;SDS_P2;PMS_P1;PMS_P2;Temp;Humidity;BMP_temperature;BMP_pressure;BME280_temperature;BME280_humidity;BME280_pressure;Samples;Min_cycle;Max_cycle;Signal;HPM_P1;HPM_P2
2021/01/24 00:00:12;;;;;;;8.70;1.02;;;11.30;99.90;;;;;;4952515;28;20130;-68
2021/01/24 00:02:39;;;;;;;3.85;0.80;;;11.60;99.90;;;;;;4956798;28;20151;-68
2021/01/24 00:05:06;;;;;;;3.90;1.55;;;11.80;99.90;;;;;;4951338;28;20170;-68
2021/01/24 00:07:33;;;;;;;3.45;0.70;;;11.90;99.90;;;;;;4951125;28;20458;-68
2021/01/24 00:09:59;;;;;;;3.05;0.63;;;11.90;99.90;;;;;;4954079;28;20109;-68
2021/01/24 00:12:26;;;;;;;4.68;1.20;;;12.10;99.90;;;;;;4952302;28;20030;-68
2021/01/24 00:14:53;;;;;;;3.00;0.50;;;12.40;99.90;;;;;;4953998;28;20059;-68
2021/01/24 00:17:19;;;;;;;4.85;0.98;;;12.80;99.90;;;;;;4953163;28;20050;-67
2021/01/24 00:19:46;;;;;;;2.47;0.55;;;12.60;99.90;;;;;;4951135;28;20039;-69
2021/01/24 00:22:13;;;;;;;7.88;1.02;;;12.50;99.90;;;;;;4953515;28;20094;-68
2021/01/24 00:24:39;;;;;;;6.28;0.50;;;12.30;99.90;;;;;;4953689;28;20033;-68
2021/01/24 00:27:06;;;;;;;2.83;0.70;;;12.30;99.90;;;;;;4952354;28;20147;-69
2021/01/24 00:29:33;;;;;;;1.67;0.50;;;12.50;99.90;;;;;;4954300;28;20031;-68
2021/01/24 00:31:59;;;;;;;3.63;0.88;;;12.40;99.90;;;;;;4952198;28;20596;-68
2021/01/24 00:34:26;;;;;;;2.75;0.65;;;12.10;99.90;;;;;;4952351;28;20539;-70
2021/01/24 00:36:53;;;;;;;2.83;0.60;;;11.90;99.90;;;;;;4953662;28;20058;-68
2021/01/24 00:39:19;;;;;;;5.82;0.80;;;11.70;99.90;;;;;;4951553;28;20338;-68
2021/01/24 00:41:46;;;;;;;1.25;0.40;;;11.60;99.90;;;;;;4941713;28;20118;-69
2021/01/24 00:44:13;;;;;;;2.83;0.40;;;11.60;99.90;;;;;;4941987;28;20059;-68
2021/01/24 00:46:39;;;;;;;4.35;0.40;;;11.50;99.90;;;;;;4942681;28;20031;-68
2021/01/24 00:49:06;;;;;;;5.25;0.90;;;11.50;99.90;;;;;;4943033;29;20039;-68
2021/01/24 00:51:32;;;;;;;5.53;1.60;;;11.50;99.90;;;;;;4944182;29;20050;-68
2021/01/24 00:53:59;;;;;;;2.38;0.80;;;11.40;99.90;;;;;;4942876;29;20110;-69
2021/01/24 00:56:26;;;;;;;1.83;0.70;;;11.00;99.90;;;;;;4941016;28;20133;-68
2021/01/24 00:58:52;;;;;;;4.13;0.88;;;10.90;99.90;;;;;;4943027;29;20091;-69
2021/01/24 01:01:19;;;;;;;3.10;0.93;;;10.70;99.90;;;;;;4943523;28;20050;-68
2021/01/24 01:03:46;;;;;;;3.08;0.40;;;10.70;99.90;;;;;;4943786;29;20034;-69
2021/01/24 01:06:12;;;;;;;3.22;0.50;;;10.60;99.90;;;;;;4944310;28;20032;-67
2021/01/24 01:08:39;;;;;;;2.33;0.50;;;10.60;99.90;;;;;;4948112;29;20139;-68
2021/01/24 01:11:06;;;;;;;4.15;0.65;;;10.60;99.90;;;;;;4943712;29;20031;-68
2021/01/24 01:13:32;;;;;;;6.45;0.57;;;10.60;99.90;;;;;;4942907;29;20090;-68
2021/01/24 01:16:01;;;;;;;5.63;1.08;;;10.50;99.90;;;;;;4942475;29;20031;-68
2021/01/24 01:18:32;;;;;;;3.17;0.80;;;10.50;99.90;;;;;;4942633;29;20350;-67
2021/01/24 01:20:58;;;;;;;4.95;1.10;;;10.50;99.90;;;;;;4942707;28;20275;-67
2021/01/24 01:23:25;;;;;;;6.68;1.30;;;10.60;99.90;;;;;;4943455;28;20174;-68
2021/01/24 01:25:55;;;;;;;4.25;0.88;;;10.60;99.90;;;;;;4937552;28;20042;-66
2021/01/24 01:28:23;;;;;;;3.22;0.60;;;10.60;99.90;;;;;;4939679;28;20060;-69
2021/01/24 01:30:49;;;;;;;4.65;1.38;;;10.60;99.90;;;;;;4938859;28;20362;-67
2021/01/24 01:33:16;;;;;;;8.52;1.30;;;10.50;99.90;;;;;;4940853;28;20055;-69
2021/01/24 01:35:43;;;;;;;6.95;1.13;;;10.50;99.90;;;;;;4942689;28;20517;-69
2021/01/24 01:38:11;;;;;;;4.55;0.95;;;10.60;99.90;;;;;;4939144;28;20027;-69
2021/01/24 01:40:37;;;;;;;8.32;1.45;;;10.70;99.90;;;;;;4941585;29;20078;-69
2021/01/24 01:43:04;;;;;;;1.73;0.75;;;10.50;99.90;;;;;;4942361;29;20042;-68
2021/01/24 01:45:31;;;;;;;10.02;1.55;;;10.50;99.90;;;;;;4942454;28;20020;-68
2021/01/24 01:47:57;;;;;;;5.13;1.55;;;10.40;99.90;;;;;;4942325;29;20035;-70
2021/01/24 01:50:24;;;;;;;4.35;1.73;;;10.40;99.90;;;;;;4942236;29;20059;-68
2021/01/24 01:52:51;;;;;;;7.18;2.47;;;10.20;99.90;;;;;;4941508;29;20287;-68
2021/01/24 01:55:18;;;;;;;6.72;2.22;;;10.20;99.90;;;;;;4943110;29;20027;-68
2021/01/24 01:57:45;;;;;;;3.63;1.90;;;10.30;99.90;;;;;;4941031;28;20102;-68
2021/01/24 02:00:12;;;;;;;6.53;1.60;;;10.30;99.90;;;;;;4941531;29;20058;-67
2021/01/24 02:02:57;;;;;;;4.18;1.90;;;10.30;99.90;;;;;;4943230;29;20164;-68
2021/01/24 02:05:23;;;;;;;3.80;1.65;;;10.30;99.90;;;;;;4942955;28;20023;-68
2021/01/24 02:08:42;;;;;;;4.13;1.73;;;10.30;99.90;;;;;;4941120;28;20407;-67
2021/01/24 02:11:18;;;;;;;10.05;2.28;;;10.20;99.90;;;;;;4903583;28;20043;-68
2021/01/24 02:14:08;;;;;;;4.95;1.92;;;10.20;99.90;;;;;;4940599;28;20031;-67
2021/01/24 02:16:38;;;;;;;2.33;1.65;;;10.10;99.90;;;;;;4942200;29;20031;-67
2021/01/24 02:19:15;;;;;;;6.00;1.70;;;10.10;99.90;;;;;;4941540;29;20346;-67
2021/01/24 02:21:45;;;;;;;4.10;1.67;;;10.10;99.90;;;;;;4941609;29;20051;-67
2021/01/24 02:24:15;;;;;;;1.90;0.73;;;10.10;99.90;;;;;;4940817;29;20268;-68
2021/01/24 02:26:54;;;;;;;1.13;0.88;;;10.00;99.90;;;;;;4940391;29;20052;-68
2021/01/24 02:29:39;;;;;;;3.20;1.17;;;10.00;99.90;;;;;;4941853;29;20055;-67
2021/01/24 02:32:09;;;;;;;3.08;1.33;;;10.00;99.90;;;;;;4940114;29;20040;-68
2021/01/24 02:34:38;;;;;;;4.32;1.17;;;9.90;99.90;;;;;;4940760;29;20027;-67
2021/01/24 02:37:06;;;;;;;6.90;4.13;;;10.00;99.90;;;;;;4940123;28;20050;-67
2021/01/24 02:39:34;;;;;;;7.68;1.55;;;9.80;99.90;;;;;;4939093;28;20130;-68
2021/01/24 02:42:01;;;;;;;14.27;3.42;;;9.40;99.90;;;;;;4938996;29;20047;-69
2021/01/24 02:44:28;;;;;;;6.15;2.13;;;9.50;99.90;;;;;;4940569;28;20031;-68
2021/01/24 02:46:58;;;;;;;4.00;1.52;;;9.50;99.90;;;;;;4940841;28;20114;-71
2021/01/24 02:49:31;;;;;;;4.30;2.00;;;9.30;99.90;;;;;;4939628;28;20606;-73
2021/01/24 02:51:59;;;;;;;7.10;1.83;;;9.40;99.90;;;;;;4938058;29;20040;-73
2021/01/24 02:54:26;;;;;;;9.97;2.40;;;9.50;99.90;;;;;;4940489;29;20037;-70
2021/01/24 02:56:53;;;;;;;7.90;2.80;;;9.50;99.90;;;;;;4939081;29;20395;-69
2021/01/24 02:59:21;;;;;;;7.95;2.70;;;9.60;99.90;;;;;;4939755;29;20039;-70
2021/01/24 03:01:48;;;;;;;9.02;2.78;;;9.60;99.90;;;;;;4939378;29;20093;-71
2021/01/24 03:04:14;;;;;;;17.65;2.42;;;9.60;99.90;;;;;;4940593;28;20107;-69
2021/01/24 03:06:41;;;;;;;6.13;2.67;;;9.60;99.90;;;;;;4940175;29;20110;-69
2021/01/24 03:09:08;;;;;;;6.15;3.70;;;9.60;99.90;;;;;;4941408;28;20097;-69
2021/01/24 03:11:39;;;;;;;3.30;1.40;;;9.40;99.90;;;;;;4941022;29;20031;-69
2021/01/24 03:14:10;;;;;;;6.70;2.10;;;9.30;99.90;;;;;;4940411;28;20106;-68
2021/01/24 03:16:38;;;;;;;3.50;1.42;;;9.30;99.90;;;;;;4939787;29;20036;-69
2021/01/24 03:19:07;;;;;;;4.28;2.40;;;9.30;99.90;;;;;;4940081;29;20028;-69
2021/01/24 03:21:37;;;;;;;4.00;3.33;;;9.20;99.90;;;;;;4940628;29;20031;-69
2021/01/24 03:24:06;;;;;;;2.80;1.92;;;9.20;99.90;;;;;;4940965;28;20078;-70
2021/01/24 03:26:33;;;;;;;5.45;1.35;;;9.30;99.90;;;;;;4940342;29;20024;-70
2021/01/24 03:29:00;;;;;;;6.13;1.63;;;9.30;99.90;;;;;;4939452;29;20035;-71
2021/01/24 03:31:27;;;;;;;2.25;1.35;;;9.40;99.90;;;;;;4940914;29;20035;-70
2021/01/24 03:33:54;;;;;;;2.90;1.10;;;9.40;99.90;;;;;;4940596;29;20039;-69
2021/01/24 03:36:20;;;;;;;4.18;1.23;;;9.50;99.90;;;;;;4939591;28;20028;-70
2021/01/24 03:38:47;;;;;;;1.88;0.80;;;9.40;99.90;;;;;;4940557;29;20027;-70
2021/01/24 03:41:13;;;;;;;3.40;1.25;;;9.30;99.90;;;;;;4939252;29;20054;-73
2021/01/24 03:43:40;;;;;;;2.92;1.05;;;9.30;99.90;;;;;;4939533;28;20035;-72
2021/01/24 03:46:07;;;;;;;3.88;1.00;;;9.30;99.90;;;;;;4940864;28;20053;-72
2021/01/24 03:48:34;;;;;;;4.15;1.05;;;9.30;99.90;;;;;;4940282;29;20032;-72
2021/01/24 03:51:00;;;;;;;1.77;0.85;;;9.20;99.90;;;;;;4938317;28;20070;-69
2021/01/24 03:53:27;;;;;;;6.45;1.20;;;9.20;99.90;;;;;;4940043;28;20536;-69
2021/01/24 03:55:53;;;;;;;2.38;0.93;;;9.00;99.90;;;;;;4939447;28;20029;-69
2021/01/24 03:58:20;;;;;;;1.73;0.93;;;8.90;99.90;;;;;;4939772;29;20089;-66
2021/01/24 04:00:47;;;;;;;3.97;1.75;;;8.80;99.90;;;;;;4940108;29;20038;-67
2021/01/24 04:03:13;;;;;;;3.25;1.52;;;8.70;99.90;;;;;;4939272;28;20035;-68
2021/01/24 04:05:40;;;;;;;3.83;1.90;;;8.60;99.90;;;;;;4937423;28;20035;-72
2021/01/24 04:08:07;;;;;;;6.05;2.72;;;8.60;99.90;;;;;;4939287;29;20118;-73
2021/01/24 04:10:33;;;;;;;7.90;3.45;;;8.50;99.90;;;;;;4937655;28;20023;-70
2021/01/24 04:13:00;;;;;;;6.90;3.35;;;8.50;99.90;;;;;;4938807;29;20137;-74
2021/01/24 04:15:27;;;;;;;9.32;4.32;;;8.50;99.90;;;;;;4939628;29;20024;-72
2021/01/24 04:17:53;;;;;;;9.52;3.58;;;8.50;99.90;;;;;;4939718;28;20451;-73
2021/01/24 04:20:20;;;;;;;10.90;4.20;;;8.50;99.90;;;;;;4940483;29;20046;-74
2021/01/24 04:22:48;;;;;;;7.43;3.45;;;8.50;99.90;;;;;;4940451;28;20115;-71
2021/01/24 04:25:18;;;;;;;5.15;2.72;;;8.60;99.90;;;;;;4941065;29;20027;-71
2021/01/24 04:27:45;;;;;;;5.05;1.70;;;8.60;99.90;;;;;;4939077;29;20051;-73
2021/01/24 04:30:12;;;;;;;5.00;1.80;;;8.70;99.90;;;;;;4940288;29;20087;-71
2021/01/24 04:32:39;;;;;;;4.15;2.15;;;8.60;99.90;;;;;;4939063;29;20472;-73
2021/01/24 04:35:06;;;;;;;5.53;1.73;;;8.50;99.90;;;;;;4940747;28;20039;-71
2021/01/24 04:37:33;;;;;;;3.60;2.22;;;8.50;99.90;;;;;;4939347;28;20129;-73
2021/01/24 04:39:59;;;;;;;6.25;2.13;;;8.40;99.90;;;;;;4940584;29;20042;-73
2021/01/24 04:42:27;;;;;;;3.08;1.90;;;8.30;99.90;;;;;;4940839;29;20122;-72
2021/01/24 04:44:55;;;;;;;4.30;1.75;;;8.10;99.90;;;;;;4938861;28;20058;-73
2021/01/24 04:47:24;;;;;;;3.13;1.90;;;8.10;99.90;;;;;;4939852;29;20046;-72
2021/01/24 04:49:51;;;;;;;5.03;2.30;;;8.10;99.90;;;;;;4940631;29;20072;-71
2021/01/24 04:52:17;;;;;;;3.38;1.90;;;8.10;99.90;;;;;;4940774;29;20036;-71
2021/01/24 04:54:44;;;;;;;1.92;1.05;;;8.10;99.90;;;;;;4940178;29;20055;-72
2021/01/24 04:57:11;;;;;;;3.35;1.63;;;8.20;99.90;;;;;;4943398;29;20043;-71
2021/01/24 04:59:38;;;;;;;3.85;1.30;;;8.20;99.90;;;;;;4943945;29;20023;-72
2021/01/24 05:02:09;;;;;;;2.63;1.38;;;8.20;99.90;;;;;;4944519;29;20414;-72
2021/01/24 05:04:36;;;;;;;1.75;1.45;;;8.30;99.90;;;;;;4947565;29;20037;-70
2021/01/24 05:07:03;;;;;;;0.93;0.80;;;8.30;99.90;;;;;;4943248;29;20032;-71
2021/01/24 05:09:29;;;;;;;3.45;1.40;;;8.20;99.90;;;;;;4942421;28;20302;-68
2021/01/24 05:11:56;;;;;;;3.45;1.52;;;8.30;99.90;;;;;;4943406;29;20035;-72
2021/01/24 05:14:26;;;;;;;4.15;1.98;;;8.30;99.90;;;;;;4941462;28;20027;-71
2021/01/24 05:16:55;;;;;;;3.22;2.03;;;8.30;99.90;;;;;;4943698;29;20298;-71
2021/01/24 05:19:22;;;;;;;3.95;1.58;;;8.30;99.90;;;;;;4941961;28;20032;-68
2021/01/24 05:21:51;;;;;;;3.63;1.30;;;8.40;99.90;;;;;;5466829;23;20109;-69
2021/01/24 05:24:19;;;;;;;3.40;1.75;;;8.20;99.90;;;;;;4991330;28;20050;-71
2021/01/24 05:26:48;;;;;;;2.57;1.83;;;8.20;99.90;;;;;;4981178;28;20507;-73
2021/01/24 05:29:22;;;;;;;4.13;2.78;;;8.10;99.90;;;;;;4981529;28;20250;-71
2021/01/24 05:31:50;;;;;;;3.88;1.77;;;8.00;99.90;;;;;;4980571;28;20038;-71
2021/01/24 05:34:17;;;;;;;5.90;2.03;;;8.00;99.90;;;;;;4979796;28;20108;-72
2021/01/24 05:36:45;;;;;;;2.67;2.17;;;8.00;99.90;;;;;;4978131;28;20100;-70
2021/01/24 05:39:13;;;;;;;5.13;1.55;;;8.00;99.90;;;;;;4977380;28;20039;-72
2021/01/24 05:41:40;;;;;;;3.25;2.22;;;8.00;99.90;;;;;;4972331;28;20141;-69
2021/01/24 05:44:14;;;;;;;2.85;1.92;;;8.00;99.90;;;;;;4972926;28;20124;-71
2021/01/24 05:46:42;;;;;;;5.45;2.78;;;8.00;99.90;;;;;;4972856;28;20022;-70
2021/01/24 05:49:10;;;;;;;3.50;2.35;;;8.00;99.90;;;;;;4975397;28;20098;-71
2021/01/24 05:51:37;;;;;;;3.45;2.53;;;8.00;99.90;;;;;;4972987;28;20041;-72
2021/01/24 05:54:04;;;;;;;7.03;3.45;;;8.00;99.90;;;;;;4971552;28;20297;-70
2021/01/24 05:56:31;;;;;;;3.20;2.90;;;7.90;99.90;;;;;;4971112;28;20674;-72
2021/01/24 05:59:02;;;;;;;3.35;2.40;;;8.00;99.90;;;;;;4971143;28;20046;-71
2021/01/24 06:01:30;;;;;;;4.60;2.58;;;8.00;99.90;;;;;;4973547;28;20057;-72
2021/01/24 06:03:59;;;;;;;2.47;1.70;;;8.00;99.90;;;;;;4973629;28;20185;-71
2021/01/24 06:06:26;;;;;;;5.05;2.65;;;8.00;99.90;;;;;;4972966;28;20457;-71
2021/01/24 06:08:52;;;;;;;3.30;2.25;;;8.00;99.90;;;;;;4973789;28;20166;-71
2021/01/24 06:11:20;;;;;;;7.20;3.10;;;8.00;99.90;;;;;;4974137;28;20054;-70
2021/01/24 06:13:50;;;;;;;2.67;1.98;;;8.10;99.90;;;;;;4974428;28;20030;-71
2021/01/24 06:16:29;;;;;;;5.38;1.80;;;8.00;99.90;;;;;;4974802;28;20102;-71
2021/01/24 06:19:02;;;;;;;3.75;1.63;;;8.10;99.90;;;;;;4973560;28;20045;-70
2021/01/24 06:21:39;;;;;;;2.60;2.25;;;7.80;99.90;;;;;;4972517;28;20026;-70
2021/01/24 06:24:20;;;;;;;3.85;2.45;;;8.10;99.90;;;;;;4974293;28;20038;-70
2021/01/24 06:26:51;;;;;;;3.78;2.38;;;8.10;99.90;;;;;;4973281;28;20476;-70
2021/01/24 06:29:20;;;;;;;2.40;2.20;;;8.10;99.90;;;;;;4972728;28;20042;-72
2021/01/24 06:31:48;;;;;;;4.60;2.85;;;8.00;99.90;;;;;;4974281;28;20022;-70
2021/01/24 06:34:15;;;;;;;3.88;2.22;;;8.00;99.90;;;;;;4973979;28;20745;-69
2021/01/24 06:37:03;;;;;;;2.97;2.60;;;8.00;99.90;;;;;;4974027;28;20057;-70
2021/01/24 06:39:43;;;;;;;3.65;1.92;;;7.90;99.90;;;;;;4974751;28;20602;-70
2021/01/24 06:42:10;;;;;;;3.38;1.83;;;7.90;99.90;;;;;;4974399;28;20038;-70
2021/01/24 06:44:41;;;;;;;7.25;2.65;;;8.00;99.90;;;;;;4973464;28;20190;-70
2021/01/24 06:47:33;;;;;;;3.42;2.00;;;7.90;99.90;;;;;;4973535;28;20022;-69
2021/01/24 06:50:00;;;;;;;2.28;2.08;;;7.90;99.90;;;;;;4974317;28;20401;-70
2021/01/24 06:52:27;;;;;;;3.45;2.70;;;7.90;99.90;;;;;;4974668;28;20042;-69
2021/01/24 06:54:53;;;;;;;3.67;2.58;;;7.90;99.90;;;;;;4973155;28;20030;-72
2021/01/24 06:57:30;;;;;;;3.67;2.50;;;7.70;99.90;;;;;;4973276;28;20023;-70
2021/01/24 07:00:17;;;;;;;3.38;2.60;;;7.70;99.90;;;;;;4973761;28;20027;-69
2021/01/24 07:02:44;;;;;;;3.15;2.83;;;7.50;99.90;;;;;;4973541;28;20027;-68
2021/01/24 07:05:19;;;;;;;5.07;3.05;;;7.50;99.90;;;;;;4973084;28;20417;-69
2021/01/24 07:07:47;;;;;;;3.47;2.20;;;7.60;99.90;;;;;;4973095;28;20026;-69
2021/01/24 07:10:39;;;;;;;4.93;3.15;;;7.60;99.90;;;;;;4974314;28;20030;-72
2021/01/24 07:13:30;;;;;;;4.10;2.15;;;7.70;99.90;;;;;;4972997;28;20027;-72
2021/01/24 07:16:01;;;;;;;3.10;2.10;;;7.80;99.90;;;;;;4972921;28;20035;-72
2021/01/24 07:18:38;;;;;;;3.13;2.03;;;7.80;99.90;;;;;;4973447;28;20019;-72
2021/01/24 07:21:05;;;;;;;7.68;2.85;;;7.80;99.90;;;;;;4973730;28;20027;-71
2021/01/24 07:23:33;;;;;;;2.55;2.05;;;7.80;99.90;;;;;;4973564;28;20211;-72
2021/01/24 07:26:03;;;;;;;4.03;2.47;;;7.90;99.90;;;;;;4972418;28;20112;-72
2021/01/24 07:28:30;;;;;;;5.07;2.40;;;7.90;99.90;;;;;;4972738;28;20232;-72
2021/01/24 07:31:05;;;;;;;2.15;1.95;;;7.90;99.90;;;;;;4972430;28;20066;-72
2021/01/24 07:33:32;;;;;;;2.78;1.83;;;7.90;99.90;;;;;;4971817;28;20062;-72
2021/01/24 07:36:02;;;;;;;5.95;2.17;;;7.80;99.90;;;;;;4971810;28;20023;-71
2021/01/24 07:38:28;;;;;;;3.50;2.00;;;7.80;99.90;;;;;;4972249;28;20031;-71
2021/01/24 07:40:59;;;;;;;5.68;2.75;;;7.70;99.90;;;;;;4971965;28;20027;-71
2021/01/24 07:43:27;;;;;;;4.47;2.80;;;7.60;99.90;;;;;;4972386;28;20042;-71
2021/01/24 07:45:54;;;;;;;6.25;2.70;;;7.70;99.90;;;;;;4971649;28;20293;-72
2021/01/24 07:48:21;;;;;;;2.25;1.70;;;7.70;99.90;;;;;;4972762;28;20037;-70
2021/01/24 07:50:48;;;;;;;2.42;1.73;;;7.60;99.90;;;;;;4971259;28;20030;-70
2021/01/24 07:53:15;;;;;;;2.58;2.20;;;7.60;99.90;;;;;;4971804;28;20140;-72
2021/01/24 07:55:43;;;;;;;3.00;2.50;;;7.50;99.90;;;;;;4972087;28;20031;-69
2021/01/24 07:58:10;;;;;;;2.70;2.20;;;7.50;99.90;;;;;;4971588;28;20476;-68
2021/01/24 08:00:37;;;;;;;6.22;2.70;;;7.40;99.90;;;;;;4971945;28;20026;-68
2021/01/24 08:03:04;;;;;;;3.20;2.80;;;7.40;99.90;;;;;;4971887;28;20117;-68
2021/01/24 08:05:34;;;;;;;4.13;3.13;;;7.30;99.90;;;;;;4972409;28;20477;-68
2021/01/24 08:08:01;;;;;;;3.28;2.45;;;7.20;99.90;;;;;;4970995;28;20492;-69
2021/01/24 08:10:31;;;;;;;4.28;2.58;;;7.10;99.90;;;;;;4969544;28;20040;-69
2021/01/24 08:12:59;;;;;;;5.13;3.20;;;7.30;99.90;;;;;;4972190;28;20089;-69
2021/01/24 08:15:27;;;;;;;4.43;3.15;;;7.30;99.90;;;;;;4973114;28;20049;-68
2021/01/24 08:17:54;;;;;;;2.97;2.35;;;7.30;99.90;;;;;;4971882;28;20019;-69
2021/01/24 08:20:22;;;;;;;5.63;3.00;;;7.40;99.90;;;;;;4973757;28;20034;-68
2021/01/24 08:22:49;;;;;;;2.97;2.65;;;7.20;99.90;;;;;;4973252;28;20047;-68
2021/01/24 08:25:16;;;;;;;4.63;2.78;;;7.20;99.90;;;;;;4972776;28;20046;-68
2021/01/24 08:27:47;;;;;;;5.90;3.35;;;7.00;99.90;;;;;;4973489;28;20042;-69
2021/01/24 08:30:16;;;;;;;7.60;3.13;;;7.00;99.90;;;;;;4971975;28;20023;-68
2021/01/24 08:32:44;;;;;;;4.63;2.95;;;6.90;99.90;;;;;;4976720;28;20117;-69
2021/01/24 08:35:14;;;;;;;2.67;2.40;;;7.00;99.90;;;;;;4977429;28;20425;-70
2021/01/24 08:37:41;;;;;;;6.88;2.95;;;7.00;99.90;;;;;;4975870;28;20101;-68
2021/01/24 08:40:08;;;;;;;5.32;4.05;;;7.00;99.90;;;;;;4975614;28;20097;-69
2021/01/24 08:42:49;;;;;;;7.43;3.88;;;7.10;99.90;;;;;;4976227;28;20425;-68
2021/01/24 08:45:21;;;;;;;7.45;4.82;;;7.20;99.90;;;;;;4975900;28;20053;-69
2021/01/24 08:47:58;;;;;;;3.83;3.22;;;7.10;99.90;;;;;;4974800;28;20054;-69
2021/01/24 08:50:31;;;;;;;5.00;3.22;;;7.20;99.90;;;;;;4976188;28;20085;-69
2021/01/24 08:53:03;;;;;;;9.77;3.20;;;7.10;99.90;;;;;;4976748;28;20041;-69
2021/01/24 08:55:30;;;;;;;4.22;3.05;;;7.10;99.90;;;;;;4975895;28;20031;-70
2021/01/24 08:57:57;;;;;;;5.07;4.13;;;7.10;99.90;;;;;;4976236;28;20038;-69
2021/01/24 09:00:24;;;;;;;5.07;3.78;;;7.10;99.90;;;;;;4976288;28;20301;-70
2021/01/24 09:02:51;;;;;;;6.15;3.30;;;7.10;99.90;;;;;;4975245;28;20030;-68
2021/01/24 09:05:31;;;;;;;6.07;3.58;;;7.20;99.90;;;;;;4975478;28;20031;-69
2021/01/24 09:07:58;;;;;;;5.68;3.55;;;7.10;99.90;;;;;;4976458;28;20417;-68
2021/01/24 09:10:32;;;;;;;3.58;3.22;;;7.10;99.90;;;;;;4975809;28;20039;-69
2021/01/24 09:13:02;;;;;;;4.50;3.72;;;7.10;99.90;;;;;;4974277;28;20113;-68
2021/01/24 09:15:30;;;;;;;4.97;3.80;;;7.10;99.90;;;;;;4974639;28;20041;-68
2021/01/24 09:17:58;;;;;;;4.33;3.93;;;7.10;99.90;;;;;;4975387;28;20054;-69
2021/01/24 09:20:26;;;;;;;3.67;3.25;;;7.10;99.90;;;;;;4976443;28;20281;-68
2021/01/24 09:22:53;;;;;;;7.32;3.97;;;6.90;99.90;;;;;;4979604;28;20373;-68
2021/01/24 09:25:20;;;;;;;4.93;4.28;;;6.80;99.90;;;;;;4975376;28;20078;-68
2021/01/24 09:27:47;;;;;;;6.00;3.60;;;6.80;99.90;;;;;;4976930;28;20035;-69
2021/01/24 09:30:15;;;;;;;4.28;3.70;;;6.80;99.90;;;;;;4975769;28;20118;-68
2021/01/24 09:32:42;;;;;;;4.65;4.05;;;6.90;99.90;;;;;;4975773;28;20121;-69
2021/01/24 09:35:09;;;;;;;6.47;4.20;;;7.00;99.90;;;;;;4975265;28;20085;-68
2021/01/24 09:37:37;;;;;;;4.43;3.38;;;7.00;99.90;;;;;;4974508;28;20037;-70
2021/01/24 09:40:05;;;;;;;4.03;3.35;;;7.10;99.90;;;;;;4974789;28;20740;-70
2021/01/24 09:42:32;;;;;;;4.35;3.00;;;7.10;99.90;;;;;;4974014;28;20034;-70
2021/01/24 09:44:59;;;;;;;3.97;2.58;;;7.20;99.90;;;;;;4974645;28;20045;-70
2021/01/24 09:47:25;;;;;;;4.30;3.63;;;7.20;99.90;;;;;;4975184;28;20045;-70
2021/01/24 09:49:52;;;;;;;3.85;3.28;;;7.30;99.90;;;;;;4975033;28;20038;-69
2021/01/24 09:52:19;;;;;;;4.47;3.92;;;7.20;99.90;;;;;;4974307;28;20070;-69
2021/01/24 09:54:45;;;;;;;4.50;3.88;;;7.10;99.90;;;;;;4976023;28;20122;-70
2021/01/24 09:57:12;;;;;;;8.40;5.80;;;7.20;99.90;;;;;;4976424;28;20124;-69
2021/01/24 09:59:38;;;;;;;3.95;3.55;;;7.30;99.90;;;;;;4974684;28;20152;-69
2021/01/24 10:02:06;;;;;;;4.20;3.75;;;7.30;99.90;;;;;;4974453;28;20031;-69
2021/01/24 10:04:32;;;;;;;4.28;3.42;;;7.50;99.90;;;;;;4973971;28;20031;-69
2021/01/24 10:06:59;;;;;;;5.15;3.72;;;7.50;99.90;;;;;;4974987;28;20038;-69
2021/01/24 10:09:26;;;;;;;6.53;4.30;;;7.40;99.90;;;;;;4975477;28;20077;-69
2021/01/24 10:11:53;;;;;;;6.45;4.82;;;7.40;99.90;;;;;;4975344;28;20463;-67
2021/01/24 10:14:19;;;;;;;7.35;4.40;;;7.40;99.90;;;;;;4973999;28;20066;-68
2021/01/24 10:16:46;;;;;;;7.10;4.20;;;7.50;99.90;;;;;;4974852;28;20027;-69
2021/01/24 10:19:13;;;;;;;6.75;5.05;;;7.40;99.90;;;;;;4975342;28;20499;-69
2021/01/24 10:21:39;;;;;;;6.03;5.38;;;7.50;99.90;;;;;;4973735;28;20133;-69
2021/01/24 10:24:06;;;;;;;6.28;4.68;;;7.50;99.90;;;;;;4974077;28;20022;-69
2021/01/24 10:26:33;;;;;;;4.68;4.28;;;7.50;99.90;;;;;;4974943;28;20404;-69
2021/01/24 10:28:59;;;;;;;6.03;5.30;;;7.60;99.90;;;;;;4974341;28;20141;-68
2021/01/24 10:31:26;;;;;;;6.60;4.40;;;7.70;99.90;;;;;;4974041;28;20042;-69
2021/01/24 10:33:52;;;;;;;4.07;3.50;;;7.70;99.90;;;;;;4974197;28;20054;-70
2021/01/24 10:36:19;;;;;;;5.70;3.47;;;7.80;99.90;;;;;;4974791;28;20209;-69
2021/01/24 10:38:47;;;;;;;8.30;3.83;;;7.80;99.90;;;;;;4977895;28;20359;-70
2021/01/24 10:41:13;;;;;;;4.40;3.90;;;7.80;99.90;;;;;;4975092;28;20168;-70
2021/01/24 10:43:40;;;;;;;3.13;2.83;;;7.90;99.90;;;;;;4973526;28;20125;-70
2021/01/24 10:46:07;;;;;;;6.35;4.20;;;7.90;99.90;;;;;;4979536;28;20045;-69
2021/01/24 10:48:33;;;;;;;6.90;3.72;;;7.90;99.90;;;;;;4975415;28;20057;-71
2021/01/24 10:51:00;;;;;;;7.28;3.75;;;7.70;99.90;;;;;;4979066;28;20095;-70
2021/01/24 10:53:26;;;;;;;4.47;3.50;;;7.60;99.90;;;;;;4973010;28;20287;-70
2021/01/24 10:55:53;;;;;;;5.57;3.88;;;7.40;99.90;;;;;;4974198;28;20110;-69
2021/01/24 10:58:20;;;;;;;4.97;3.35;;;7.50;99.90;;;;;;4974219;28;20064;-70
2021/01/24 11:00:46;;;;;;;4.03;3.63;;;7.50;99.90;;;;;;4973873;28;20026;-68
2021/01/24 11:03:13;;;;;;;4.55;3.72;;;7.40;99.90;;;;;;4973135;28;20045;-69
2021/01/24 11:05:40;;;;;;;6.65;4.30;;;7.40;99.90;;;;;;4973593;28;20027;-68
2021/01/24 11:08:08;;;;;;;7.15;4.50;;;7.60;99.90;;;;;;4973902;28;20041;-69
2021/01/24 11:10:34;;;;;;;5.70;4.00;;;7.60;99.90;;;;;;4973627;28;20026;-68
2021/01/24 11:13:01;;;;;;;5.80;4.32;;;7.70;99.90;;;;;;4973279;28;20027;-69
2021/01/24 11:15:30;;;;;;;5.47;3.33;;;7.80;99.90;;;;;;4973815;28;20058;-69
2021/01/24 11:17:57;;;;;;;3.83;3.20;;;7.80;99.90;;;;;;4975211;28;20117;-68
2021/01/24 11:20:23;;;;;;;3.63;3.28;;;7.80;99.90;;;;;;4973505;28;20175;-69
2021/01/24 11:22:50;;;;;;;7.85;5.32;;;7.80;99.90;;;;;;4972936;28;20038;-69
2021/01/24 11:25:17;;;;;;;6.72;3.47;;;7.80;99.90;;;;;;4973592;28;20023;-68
2021/01/24 11:27:43;;;;;;;4.88;3.95;;;7.80;99.90;;;;;;4973202;28;20057;-68
2021/01/24 11:30:12;;;;;;;8.63;5.85;;;7.80;99.90;;;;;;4972248;28;20301;-68
2021/01/24 11:32:39;;;;;;;4.22;2.90;;;7.90;99.90;;;;;;4973226;28;20096;-67
2021/01/24 11:35:08;;;;;;;4.88;3.88;;;7.90;99.90;;;;;;4973595;28;20034;-67
2021/01/24 11:37:34;;;;;;;4.32;3.78;;;7.90;99.90;;;;;;4973691;28;20035;-66
2021/01/24 11:40:01;;;;;;;7.40;4.88;;;7.80;99.90;;;;;;4972978;28;20031;-67
2021/01/24 11:42:28;;;;;;;7.68;4.95;;;7.70;99.90;;;;;;4972759;28;20037;-67
2021/01/24 11:44:55;;;;;;;5.10;3.03;;;7.70;99.90;;;;;;4973465;28;20097;-68
2021/01/24 11:47:21;;;;;;;6.68;3.08;;;7.70;99.90;;;;;;4974188;28;20044;-68
2021/01/24 11:49:48;;;;;;;6.78;4.25;;;7.70;99.90;;;;;;4973479;28;20138;-68
2021/01/24 11:52:14;;;;;;;9.90;4.80;;;7.70;99.90;;;;;;4977842;28;20131;-68
2021/01/24 11:54:41;;;;;;;6.25;3.75;;;7.80;99.90;;;;;;4973225;28;20093;-69
2021/01/24 11:57:08;;;;;;;11.23;4.90;;;7.70;99.90;;;;;;4973567;28;20064;-69
2021/01/24 11:59:34;;;;;;;6.85;3.97;;;7.60;99.90;;;;;;4972228;28;20777;-69
2021/01/24 12:02:01;;;;;;;5.80;4.72;;;7.60;99.90;;;;;;4972080;28;20041;-69
2021/01/24 12:04:27;;;;;;;5.25;3.13;;;7.50;99.90;;;;;;4975881;28;20030;-69
2021/01/24 12:06:54;;;;;;;5.05;3.53;;;7.40;99.90;;;;;;4977646;28;21531;-68
2021/01/24 12:09:21;;;;;;;4.90;3.95;;;7.30;99.90;;;;;;4977357;28;20513;-67
2021/01/24 12:11:47;;;;;;;4.43;3.85;;;7.30;99.90;;;;;;4977496;28;20142;-68
2021/01/24 12:14:14;;;;;;;4.28;3.88;;;7.20;99.90;;;;;;4976897;28;20061;-68
2021/01/24 12:16:41;;;;;;;7.03;3.63;;;7.20;99.90;;;;;;4977589;28;20014;-67
2021/01/24 12:19:07;;;;;;;4.45;4.05;;;7.10;99.90;;;;;;4976843;28;20064;-67
2021/01/24 12:21:34;;;;;;;5.13;4.20;;;6.90;99.90;;;;;;4975833;28;20027;-67
2021/01/24 12:24:00;;;;;;;4.75;3.17;;;6.90;99.90;;;;;;4980795;28;20084;-68
2021/01/24 12:26:27;;;;;;;6.00;3.90;;;7.00;99.90;;;;;;4977383;28;20098;-68
2021/01/24 12:28:54;;;;;;;3.65;3.35;;;6.90;99.90;;;;;;4976469;28;20396;-68
2021/01/24 12:31:20;;;;;;;6.60;3.42;;;7.00;99.90;;;;;;4975765;28;20262;-68
2021/01/24 12:33:47;;;;;;;4.15;3.70;;;7.00;99.90;;;;;;4977138;28;20018;-68
2021/01/24 12:36:13;;;;;;;3.97;3.55;;;7.00;99.90;;;;;;4986792;28;20484;-67
2021/01/24 12:38:40;;;;;;;3.72;3.42;;;6.90;99.90;;;;;;4980654;28;20046;-67
2021/01/24 12:41:07;;;;;;;3.25;2.95;;;6.90;99.90;;;;;;4982019;28;20468;-66
2021/01/24 12:43:33;;;;;;;3.50;2.78;;;6.80;99.90;;;;;;4977169;28;20060;-66
2021/01/24 12:46:00;;;;;;;8.80;5.07;;;6.80;99.90;;;;;;4977133;28;20350;-67
2021/01/24 12:48:26;;;;;;;3.65;3.30;;;6.80;99.90;;;;;;4976137;28;20031;-67
2021/01/24 12:50:53;;;;;;;5.93;4.05;;;6.70;99.90;;;;;;4975779;28;20309;-67
2021/01/24 12:53:20;;;;;;;3.60;3.28;;;6.70;99.90;;;;;;4976640;28;20137;-68
2021/01/24 12:55:46;;;;;;;6.22;3.85;;;6.70;99.90;;;;;;4975688;28;20034;-67
2021/01/24 12:58:13;;;;;;;4.10;2.95;;;6.70;99.90;;;;;;4975903;28;20113;-68
2021/01/24 13:00:39;;;;;;;6.50;2.95;;;6.50;99.90;;;;;;4976050;28;20038;-68